createdAt,value
2022-11-06T00:00:40.035Z,4.15
2022-11-06T00:03:07.714Z,3.92
2022-11-06T00:05:52.780Z,4.40
2022-11-06T00:08:31.532Z,4.15
2022-11-06T00:10:58.907Z,5.40
2022-11-06T00:13:26.415Z,4.78
2022-11-06T00:15:53.849Z,6.30
2022-11-06T00:18:21.344Z,4.75
2022-11-06T00:20:48.709Z,5.00
2022-11-06T00:23:16.140Z,5.03
2022-11-06T00:25:44.807Z,4.65
2022-11-06T00:28:12.410Z,5.28
2022-11-06T00:30:40.316Z,4.80
2022-11-06T00:33:08.044Z,4.35
2022-11-06T00:35:35.401Z,4.10
2022-11-06T00:38:02.783Z,3.95
2022-11-06T00:40:30.270Z,3.83
2022-11-06T00:42:59.349Z,3.97
2022-11-06T00:45:26.876Z,3.65
2022-11-06T00:47:54.263Z,4.57
2022-11-06T00:50:22.845Z,3.95
2022-11-06T00:52:50.248Z,4.22
2022-11-06T00:55:17.596Z,3.85
2022-11-06T00:57:44.954Z,4.45
2022-11-06T01:00:14.654Z,5.55
2022-11-06T01:02:42.249Z,4.70
2022-11-06T01:05:09.850Z,4.57
2022-11-06T01:07:37.256Z,3.90
2022-11-06T01:10:05.317Z,4.47
2022-11-06T01:12:32.680Z,4.50
2022-11-06T01:15:00.034Z,4.43
2022-11-06T01:17:29.169Z,4.78
2022-11-06T01:19:56.581Z,4.38
2022-11-06T01:22:23.963Z,4.30
2022-11-06T01:24:51.385Z,3.92
2022-11-06T01:27:27.354Z,4.35
2022-11-06T01:29:55.142Z,4.00
2022-11-06T01:32:22.488Z,3.90
2022-11-06T01:34:51.445Z,4.05
2022-11-06T01:37:18.787Z,4.28
2022-11-06T01:39:46.137Z,4.78
2022-11-06T01:42:14.508Z,4.65
2022-11-06T01:45:00.319Z,4.47
2022-11-06T01:47:28.450Z,4.57
2022-11-06T01:49:58.259Z,4.90
2022-11-06T01:52:26.597Z,5.13
2022-11-06T01:54:55.922Z,4.97
2022-11-06T01:57:23.282Z,4.70
2022-11-06T01:59:52.298Z,5.40
2022-11-06T02:02:19.883Z,4.97
2022-11-06T02:04:49.181Z,5.10
2022-11-06T02:07:18.909Z,4.90
2022-11-06T02:09:46.311Z,5.45
2022-11-06T02:12:15.986Z,5.32
2022-11-06T02:14:46.475Z,5.05
2022-11-06T02:17:16.549Z,5.00
2022-11-06T02:19:52.411Z,5.32
2022-11-06T02:22:26.941Z,5.85
2022-11-06T02:25:00.018Z,5.32
2022-11-06T02:27:29.599Z,5.80
2022-11-06T02:30:00.413Z,5.63
2022-11-06T02:32:31.014Z,5.75
2022-11-06T02:34:59.480Z,5.78
2022-11-06T02:37:28.609Z,5.43
2022-11-06T02:39:58.119Z,5.93
2022-11-06T02:42:27.253Z,5.53
2022-11-06T02:44:57.236Z,5.55
2022-11-06T02:47:26.521Z,5.55
2022-11-06T02:49:54.754Z,5.20
2022-11-06T02:52:24.165Z,5.47
2022-11-06T02:54:53.225Z,6.00
2022-11-06T02:57:21.276Z,6.45
2022-11-06T02:59:50.717Z,5.53
2022-11-06T03:02:22.105Z,5.60
2022-11-06T03:07:20.815Z,5.00
2022-11-06T03:09:49.012Z,5.45
2022-11-06T03:12:20.195Z,5.45
2022-11-06T03:14:49.772Z,5.32
2022-11-06T03:17:19.564Z,5.60
2022-11-06T03:19:50.605Z,5.53
2022-11-06T03:22:25.875Z,4.85
2022-11-06T03:24:56.842Z,5.13
2022-11-06T03:27:27.008Z,5.57
2022-11-06T03:29:59.106Z,5.30
2022-11-06T03:32:28.425Z,4.90
2022-11-06T03:35:00.529Z,5.00
2022-11-06T03:37:29.324Z,5.50
2022-11-06T03:39:58.646Z,5.40
2022-11-06T03:42:27.729Z,5.38
2022-11-06T03:44:58.070Z,5.50
2022-11-06T03:47:27.044Z,5.10
2022-11-06T03:49:57.105Z,5.22
2022-11-06T03:52:29.460Z,4.97
2022-11-06T03:54:58.581Z,5.35
2022-11-06T03:57:30.038Z,5.47
2022-11-06T03:59:59.985Z,5.00
2022-11-06T04:02:29.223Z,5.32
2022-11-06T04:04:58.423Z,5.15
2022-11-06T04:07:29.549Z,4.88
2022-11-06T04:10:17.839Z,5.30
2022-11-06T04:13:00.034Z,5.03
2022-11-06T04:15:28.356Z,5.63
2022-11-06T04:17:55.747Z,5.53
2022-11-06T04:20:42.544Z,5.28
2022-11-06T04:23:15.093Z,6.22
2022-11-06T04:26:09.194Z,5.18
2022-11-06T04:28:42.066Z,5.75
2022-11-06T04:31:11.861Z,6.03
2022-11-06T04:33:44.724Z,6.30
2022-11-06T04:36:15.155Z,5.32
2022-11-06T04:38:48.285Z,5.82
2022-11-06T04:41:19.201Z,5.53
2022-11-06T04:43:48.334Z,5.38
2022-11-06T04:46:19.846Z,5.50
2022-11-06T04:48:48.057Z,5.70
2022-11-06T04:51:16.426Z,5.93
2022-11-06T04:53:45.254Z,5.20
2022-11-06T04:56:15.595Z,5.50
2022-11-06T04:58:46.171Z,5.50
2022-11-06T05:01:13.612Z,5.47
2022-11-06T05:03:41.033Z,5.28
2022-11-06T05:06:08.452Z,5.63
2022-11-06T05:08:35.812Z,5.72
2022-11-06T05:11:04.585Z,5.85
2022-11-06T05:13:31.954Z,5.45
2022-11-06T05:15:59.957Z,5.40
2022-11-06T05:18:27.976Z,6.00
2022-11-06T05:21:15.569Z,5.38
2022-11-06T05:23:42.165Z,6.07
2022-11-06T05:26:10.881Z,5.75
2022-11-06T05:28:38.253Z,5.95
2022-11-06T05:31:06.238Z,5.38
2022-11-06T05:33:33.685Z,5.70
2022-11-06T05:36:02.608Z,6.40
2022-11-06T05:38:30.041Z,6.45
2022-11-06T05:40:57.459Z,6.40
2022-11-06T05:43:26.223Z,5.18
2022-11-06T05:45:53.696Z,5.07
2022-11-06T05:48:21.109Z,5.97
2022-11-06T05:50:48.529Z,5.32
2022-11-06T05:53:16.078Z,5.60
2022-11-06T05:55:43.569Z,5.72
2022-11-06T05:58:11.204Z,5.70
2022-11-06T06:00:40.308Z,5.82
2022-11-06T06:03:07.765Z,5.97
2022-11-06T06:05:35.163Z,5.63
2022-11-06T06:08:02.512Z,6.28
2022-11-06T06:10:29.925Z,6.18
2022-11-06T06:12:57.291Z,6.05
2022-11-06T06:15:24.739Z,5.88
2022-11-06T06:17:53.493Z,5.72
2022-11-06T06:20:20.867Z,5.53
2022-11-06T06:22:53.920Z,6.07
2022-11-06T06:25:22.945Z,5.68
2022-11-06T06:27:50.685Z,5.72
2022-11-06T06:30:18.233Z,6.60
2022-11-06T06:32:45.596Z,6.18
2022-11-06T06:35:14.299Z,6.10
2022-11-06T06:37:41.669Z,6.20
2022-11-06T06:40:09.611Z,6.60
2022-11-06T06:42:36.998Z,6.60
2022-11-06T06:45:04.631Z,6.18
2022-11-06T06:47:32.026Z,5.82
2022-11-06T06:49:59.429Z,7.03
2022-11-06T06:52:28.242Z,6.22
2022-11-06T06:54:55.615Z,5.40
2022-11-06T06:57:23.010Z,6.38
2022-11-06T06:59:50.825Z,6.85
2022-11-06T07:02:18.272Z,6.13
2022-11-06T07:04:45.735Z,6.60
2022-11-06T07:07:13.333Z,7.55
2022-11-06T07:09:42.052Z,7.80
2022-11-06T07:12:09.458Z,6.85
2022-11-06T07:14:36.857Z,6.53
2022-11-06T07:17:04.220Z,6.43
2022-11-06T07:19:31.613Z,6.57
2022-11-06T07:21:58.912Z,6.60
2022-11-06T07:24:26.296Z,6.15
2022-11-06T07:26:55.070Z,7.05
2022-11-06T07:29:22.571Z,6.70
2022-11-06T07:31:50.002Z,6.40
2022-11-06T07:34:17.398Z,7.18
2022-11-06T07:36:44.792Z,7.10
2022-11-06T07:39:12.164Z,7.25
2022-11-06T07:41:39.562Z,6.85
2022-11-06T07:44:08.382Z,7.30
2022-11-06T07:46:35.751Z,7.95
2022-11-06T07:49:03.128Z,8.88
2022-11-06T07:51:30.718Z,7.25
2022-11-06T07:53:58.227Z,7.70
2022-11-06T07:56:25.611Z,6.88
2022-11-06T07:58:52.956Z,7.05
2022-11-06T08:01:21.831Z,6.80
2022-11-06T08:03:49.312Z,7.63
2022-11-06T08:06:16.733Z,7.90
2022-11-06T08:08:44.108Z,7.13
2022-11-06T08:11:12.257Z,7.00
2022-11-06T08:13:39.917Z,7.07
2022-11-06T08:16:07.728Z,7.10
2022-11-06T08:18:36.873Z,7.57
2022-11-06T08:21:04.578Z,7.10
2022-11-06T08:23:32.053Z,8.40
2022-11-06T08:26:00.510Z,7.07
2022-11-06T08:28:27.926Z,7.10
2022-11-06T08:30:55.335Z,6.57
2022-11-06T08:33:23.370Z,6.93
2022-11-06T08:35:52.088Z,6.82
2022-11-06T08:38:19.435Z,6.75
2022-11-06T08:40:52.285Z,6.15
2022-11-06T08:43:20.925Z,6.07
2022-11-06T08:45:48.283Z,6.10
2022-11-06T08:48:15.653Z,6.13
2022-11-06T08:50:43.026Z,6.38
2022-11-06T08:53:12.077Z,5.97
2022-11-06T08:55:40.301Z,6.88
2022-11-06T08:58:08.376Z,5.05
2022-11-06T09:00:36.004Z,5.90
2022-11-06T09:03:04.568Z,5.60
2022-11-06T09:05:31.950Z,5.47
2022-11-06T09:07:59.621Z,5.35
2022-11-06T09:10:28.618Z,5.10
2022-11-06T09:12:56.703Z,5.20
2022-11-06T09:15:24.062Z,5.25
2022-11-06T09:17:52.171Z,4.10
2022-11-06T09:20:20.808Z,5.65
2022-11-06T09:22:48.547Z,4.45
2022-11-06T09:25:16.298Z,4.40
2022-11-06T09:27:46.619Z,4.63
2022-11-06T09:30:15.344Z,4.50
2022-11-06T09:32:46.121Z,4.10
2022-11-06T09:35:13.437Z,4.40
2022-11-06T09:37:40.872Z,4.05
2022-11-06T09:40:09.123Z,4.50
2022-11-06T09:42:42.077Z,4.10
2022-11-06T09:45:13.893Z,4.32
2022-11-06T09:47:44.780Z,4.13
2022-11-06T09:50:15.404Z,4.93
2022-11-06T09:52:45.212Z,4.78
2022-11-06T09:55:16.246Z,3.88
2022-11-06T09:57:46.020Z,3.97
2022-11-06T10:00:16.432Z,4.05
2022-11-06T10:02:44.717Z,3.85
2022-11-06T10:05:15.456Z,4.13
2022-11-06T10:07:43.369Z,4.22
2022-11-06T10:10:15.078Z,3.95
2022-11-06T10:12:53.347Z,4.32
2022-11-06T10:15:24.758Z,3.92
2022-11-06T10:17:56.039Z,3.55
2022-11-06T10:20:27.634Z,3.58
2022-11-06T10:23:01.270Z,3.75
2022-11-06T10:25:37.102Z,3.33
2022-11-06T10:28:09.489Z,3.38
2022-11-06T10:30:41.382Z,2.97
2022-11-06T10:33:15.063Z,2.22
2022-11-06T10:35:44.842Z,3.50
2022-11-06T10:38:15.040Z,4.10
2022-11-06T10:40:44.435Z,3.08
2022-11-06T10:43:18.901Z,2.75
2022-11-06T10:45:49.666Z,3.10
2022-11-06T10:48:28.926Z,3.28
2022-11-06T10:51:03.282Z,3.05
2022-11-06T10:53:37.212Z,2.88
2022-11-06T10:56:11.146Z,2.80
2022-11-06T10:58:38.817Z,2.60
2022-11-06T11:01:09.989Z,3.10
2022-11-06T11:03:41.115Z,2.88
2022-11-06T11:08:37.524Z,2.78
2022-11-06T11:11:06.060Z,2.60
2022-11-06T11:13:33.944Z,3.40
2022-11-06T11:16:02.970Z,2.88
2022-11-06T11:18:32.141Z,2.63
2022-11-06T11:21:06.256Z,2.65
2022-11-06T11:23:33.706Z,2.92
2022-11-06T11:26:15.310Z,2.72
2022-11-06T11:28:42.719Z,2.58
2022-11-06T11:31:11.749Z,2.60
2022-11-06T11:33:41.487Z,2.20
2022-11-06T11:36:10.670Z,2.63
2022-11-06T11:38:39.982Z,2.20
2022-11-06T11:41:08.806Z,2.58
2022-11-06T11:43:36.526Z,2.85
2022-11-06T11:46:05.296Z,2.15
2022-11-06T11:48:44.315Z,2.38
2022-11-06T11:51:26.618Z,2.90
2022-11-06T11:53:55.943Z,2.30
2022-11-06T11:56:49.666Z,2.03
2022-11-06T11:59:15.834Z,2.42
2022-11-06T12:01:43.416Z,2.03
2022-11-06T12:04:18.516Z,2.10
2022-11-06T12:06:57.666Z,2.00
2022-11-06T12:09:25.687Z,1.90
2022-11-06T12:11:53.654Z,2.60
2022-11-06T12:14:28.571Z,2.25
2022-11-06T12:16:58.277Z,2.17
2022-11-06T12:19:29.475Z,2.00
2022-11-06T12:21:58.415Z,2.10
2022-11-06T12:24:28.557Z,2.00
2022-11-06T12:26:56.669Z,1.60
2022-11-06T12:29:26.445Z,1.63
2022-11-06T12:31:56.262Z,2.17
2022-11-06T12:34:25.282Z,1.80
2022-11-06T12:37:03.550Z,1.70
2022-11-06T12:39:33.822Z,1.73
2022-11-06T12:42:03.277Z,1.70
2022-11-06T12:44:30.674Z,1.50
2022-11-06T12:47:01.583Z,1.63
2022-11-06T12:49:36.929Z,1.42
2022-11-06T12:52:13.921Z,1.40
2022-11-06T12:54:47.942Z,1.50
2022-11-06T12:57:21.522Z,1.42
2022-11-06T12:59:55.649Z,1.67
2022-11-06T13:02:33.271Z,1.50
2022-11-06T13:05:01.969Z,1.23
2022-11-06T13:07:46.605Z,1.42
2022-11-06T13:10:19.933Z,1.50
2022-11-06T13:12:53.453Z,1.35
2022-11-06T13:15:26.679Z,1.48
2022-11-06T13:17:55.976Z,1.92
2022-11-06T13:20:26.454Z,1.80
2022-11-06T13:25:27.009Z,1.45
2022-11-06T13:27:59.116Z,1.17
2022-11-06T13:30:27.760Z,1.58
2022-11-06T13:33:01.035Z,1.33
2022-11-06T13:35:28.617Z,1.65
2022-11-06T13:37:57.222Z,1.17
2022-11-06T13:40:28.729Z,1.20
2022-11-06T13:42:58.286Z,1.30
2022-11-06T13:45:26.452Z,1.05
2022-11-06T13:48:00.632Z,1.33
2022-11-06T13:50:30.727Z,1.13
2022-11-06T13:53:00.719Z,1.15
2022-11-06T13:55:36.682Z,1.10
2022-11-06T13:58:21.605Z,1.40
2022-11-06T14:00:56.242Z,1.38
2022-11-06T14:03:42.049Z,1.30
2022-11-06T14:06:11.467Z,1.17
2022-11-06T14:08:42.190Z,1.20
2022-11-06T14:11:14.740Z,1.20
2022-11-06T14:13:42.563Z,1.35
2022-11-06T14:16:26.318Z,1.15
2022-11-06T14:18:57.884Z,1.30
2022-11-06T14:21:52.144Z,1.20
2022-11-06T14:24:40.602Z,1.45
2022-11-06T14:27:12.782Z,1.40
2022-11-06T14:29:44.087Z,1.30
2022-11-06T14:32:12.623Z,1.35
2022-11-06T14:34:40.553Z,1.15
2022-11-06T14:37:31.150Z,1.10
2022-11-06T14:40:13.421Z,1.40
2022-11-06T14:42:43.390Z,1.40
2022-11-06T14:45:14.046Z,1.60
2022-11-06T14:47:42.932Z,1.30
2022-11-06T14:50:25.189Z,1.40
2022-11-06T14:52:55.549Z,1.33
2022-11-06T14:55:26.533Z,1.70
2022-11-06T14:57:55.601Z,1.23
2022-11-06T15:00:35.138Z,1.48
2022-11-06T15:03:02.902Z,1.45
2022-11-06T15:05:31.286Z,1.95
2022-11-06T15:08:15.463Z,1.85
2022-11-06T15:10:53.933Z,1.70
2022-11-06T15:13:27.361Z,2.05
2022-11-06T15:15:57.907Z,1.25
2022-11-06T15:18:26.613Z,1.52
2022-11-06T15:20:55.183Z,1.73
2022-11-06T15:23:24.670Z,2.33
2022-11-06T15:26:05.262Z,1.80
2022-11-06T15:28:42.516Z,1.67
2022-11-06T15:31:14.296Z,2.50
2022-11-06T15:33:54.467Z,2.47
2022-11-06T15:36:23.133Z,2.28
2022-11-06T15:38:50.881Z,2.53
2022-11-06T15:41:19.895Z,2.33
2022-11-06T15:43:49.797Z,2.50
2022-11-06T15:46:19.373Z,2.50
2022-11-06T15:48:47.109Z,2.72
2022-11-06T15:51:21.284Z,2.97
2022-11-06T15:53:48.637Z,2.58
2022-11-06T15:56:16.856Z,3.15
2022-11-06T15:58:44.273Z,8.85
2022-11-06T16:01:13.271Z,6.93
2022-11-06T16:03:49.314Z,6.50
2022-11-06T16:06:16.775Z,4.80
2022-11-06T16:08:44.592Z,3.88
2022-11-06T16:11:13.585Z,3.67
2022-11-06T16:13:41.748Z,3.88
2022-11-06T16:16:29.454Z,3.38
2022-11-06T16:18:58.236Z,3.25
2022-11-06T16:21:28.248Z,2.80
2022-11-06T16:23:57.091Z,3.03
2022-11-06T16:26:25.878Z,2.92
2022-11-06T16:28:54.759Z,2.97
2022-11-06T16:31:23.448Z,2.97
2022-11-06T16:33:58.815Z,2.70
2022-11-06T16:36:26.583Z,2.65
2022-11-06T16:38:54.354Z,2.97
2022-11-06T16:41:40.356Z,2.55
2022-11-06T16:44:23.560Z,2.63
2022-11-06T16:47:14.752Z,3.10
2022-11-06T16:49:47.627Z,3.35
2022-11-06T16:52:19.077Z,3.30
2022-11-06T16:54:47.443Z,3.63
2022-11-06T16:57:17.119Z,4.47
2022-11-06T16:59:44.812Z,3.50
2022-11-06T17:02:20.809Z,3.72
2022-11-06T17:04:49.771Z,3.50
2022-11-06T17:07:20.896Z,3.67
2022-11-06T17:09:48.306Z,4.03
2022-11-06T17:12:15.710Z,3.50
2022-11-06T17:14:46.844Z,3.65
2022-11-06T17:17:26.983Z,4.00
2022-11-06T17:19:55.664Z,4.03
2022-11-06T17:22:23.631Z,4.30
2022-11-06T17:24:50.996Z,3.35
2022-11-06T17:27:18.404Z,3.85
2022-11-06T17:29:45.812Z,3.50
2022-11-06T17:32:13.152Z,4.25
2022-11-06T17:34:40.534Z,4.20
2022-11-06T17:37:11.137Z,4.05
2022-11-06T17:39:38.512Z,3.83
2022-11-06T17:42:05.972Z,3.47
2022-11-06T17:44:33.382Z,4.13
2022-11-06T17:47:00.754Z,4.13
2022-11-06T17:49:28.178Z,4.30
2022-11-06T17:52:00.111Z,4.10
2022-11-06T17:54:30.350Z,4.53
2022-11-06T17:56:57.983Z,4.57
2022-11-06T17:59:26.040Z,5.05
2022-11-06T18:01:53.975Z,4.45
2022-11-06T18:04:22.549Z,4.43
2022-11-06T18:06:50.891Z,4.53
2022-11-06T18:09:18.700Z,4.50
2022-11-06T18:11:49.304Z,4.95
2022-11-06T18:14:16.932Z,3.90
2022-11-06T18:16:44.329Z,4.28
2022-11-06T18:19:12.729Z,4.28
2022-11-06T18:21:40.137Z,4.47
2022-11-06T18:24:08.243Z,3.90
2022-11-06T18:26:37.095Z,3.97
2022-11-06T18:29:06.097Z,4.32
2022-11-06T18:31:33.547Z,3.53
2022-11-06T18:34:00.993Z,4.00
2022-11-06T18:36:28.378Z,4.78
2022-11-06T18:38:55.785Z,4.88
2022-11-06T18:41:23.252Z,4.70
2022-11-06T18:43:50.669Z,4.97
2022-11-06T18:46:19.757Z,5.45
2022-11-06T18:48:47.176Z,5.25
2022-11-06T18:51:27.546Z,4.75
2022-11-06T18:54:01.710Z,5.40
2022-11-06T18:56:29.877Z,4.85
2022-11-06T18:58:57.551Z,5.38
2022-11-06T19:01:26.522Z,5.25
2022-11-06T19:03:54.009Z,5.35
2022-11-06T19:06:21.494Z,5.45
2022-11-06T19:08:49.175Z,6.25
2022-11-06T19:11:17.470Z,5.97
2022-11-06T19:13:48.028Z,5.75
2022-11-06T19:18:44.728Z,5.40
2022-11-06T19:21:13.328Z,5.45
2022-11-06T19:23:41.589Z,5.35
2022-11-06T19:26:30.179Z,5.90
2022-11-06T19:28:59.835Z,6.55
2022-11-06T19:31:29.210Z,5.68
2022-11-06T19:33:58.960Z,6.90
2022-11-06T19:36:26.667Z,5.72
2022-11-06T19:38:54.145Z,6.28
2022-11-06T19:41:21.615Z,5.80
2022-11-06T19:43:48.985Z,6.38
2022-11-06T19:46:23.463Z,6.13
2022-11-06T19:48:52.283Z,6.30
2022-11-06T19:51:21.043Z,6.22
2022-11-06T19:53:52.206Z,6.88
2022-11-06T19:56:19.641Z,6.15
2022-11-06T19:58:47.645Z,6.30
2022-11-06T20:01:15.349Z,6.65
2022-11-06T20:03:43.279Z,6.90
2022-11-06T20:06:11.122Z,6.00
2022-11-06T20:08:39.842Z,7.60
2022-11-06T20:11:07.967Z,6.35
2022-11-06T20:13:37.298Z,6.85
2022-11-06T20:16:04.699Z,7.25
2022-11-06T20:18:32.414Z,7.15
2022-11-06T20:21:00.414Z,7.15
2022-11-06T20:23:27.813Z,7.10
2022-11-06T20:25:56.545Z,6.72
2022-11-06T20:28:24.329Z,6.15
2022-11-06T20:30:51.713Z,7.38
2022-11-06T20:33:19.431Z,7.45
2022-11-06T20:35:46.974Z,6.85
2022-11-06T20:38:15.368Z,7.00
2022-11-06T20:40:42.972Z,7.43
2022-11-06T20:43:11.971Z,7.35
2022-11-06T20:45:39.849Z,7.50
2022-11-06T20:48:09.056Z,7.25
2022-11-06T20:50:36.525Z,7.75
2022-11-06T20:53:03.950Z,7.30
2022-11-06T20:55:31.344Z,7.40
2022-11-06T20:57:58.673Z,7.53
2022-11-06T21:00:27.368Z,7.18
2022-11-06T21:02:59.017Z,7.20
2022-11-06T21:05:28.986Z,7.63
2022-11-06T21:07:56.341Z,8.85
2022-11-06T21:10:23.692Z,8.07
2022-11-06T21:12:51.085Z,8.50
2022-11-06T21:15:18.614Z,7.75
2022-11-06T21:17:47.281Z,8.77
2022-11-06T21:20:16.975Z,8.32
2022-11-06T21:22:47.747Z,8.82
2022-11-06T21:25:15.113Z,8.98
2022-11-06T21:27:42.505Z,9.15
2022-11-06T21:30:10.602Z,8.32
2022-11-06T21:32:37.940Z,9.02
2022-11-06T21:35:07.425Z,9.27
2022-11-06T21:37:34.783Z,8.60
2022-11-06T21:40:02.199Z,8.98
2022-11-06T21:42:29.608Z,8.90
2022-11-06T21:44:57.013Z,9.40
2022-11-06T21:47:24.374Z,8.15
2022-11-06T21:49:54.775Z,9.45
2022-11-06T21:52:41.152Z,9.00
2022-11-06T21:55:26.471Z,9.18
2022-11-06T21:57:53.828Z,9.25
2022-11-06T22:00:21.778Z,8.50
2022-11-06T22:02:50.928Z,9.40
2022-11-06T22:05:18.829Z,9.43
2022-11-06T22:07:47.549Z,8.60
2022-11-06T22:10:14.976Z,8.77
2022-11-06T22:12:42.330Z,8.38
2022-11-06T22:15:10.114Z,9.27
2022-11-06T22:17:37.477Z,9.02
2022-11-06T22:20:05.200Z,8.88
2022-11-06T22:22:32.574Z,8.70
2022-11-06T22:25:01.321Z,8.55
2022-11-06T22:27:28.720Z,8.68
2022-11-06T22:29:56.085Z,8.40
2022-11-06T22:32:23.453Z,8.88
2022-11-06T22:34:50.850Z,8.50
2022-11-06T22:37:18.314Z,8.60
2022-11-06T22:39:48.267Z,8.05
2022-11-06T22:42:16.936Z,9.15
2022-11-06T22:44:44.417Z,9.63
2022-11-06T22:47:12.018Z,8.55
2022-11-06T22:49:39.408Z,7.78
2022-11-06T22:52:06.801Z,8.52
2022-11-06T22:54:34.175Z,8.25
2022-11-06T22:57:01.548Z,8.43
2022-11-06T22:59:30.259Z,8.45
2022-11-06T23:01:57.711Z,8.60
2022-11-06T23:04:25.181Z,7.93
2022-11-06T23:06:52.559Z,8.68
2022-11-06T23:09:19.878Z,8.52
2022-11-06T23:11:47.308Z,8.27
2022-11-06T23:14:14.714Z,8.35
2022-11-06T23:17:00.330Z,7.90
2022-11-06T23:19:28.941Z,8.60
2022-11-06T23:22:17.153Z,7.60
2022-11-06T23:24:44.584Z,7.55
2022-11-06T23:27:12.685Z,7.45
2022-11-06T23:29:40.421Z,8.45
2022-11-06T23:32:09.141Z,8.38
2022-11-06T23:34:36.528Z,8.30
2022-11-06T23:37:03.888Z,7.97
2022-11-06T23:39:31.208Z,8.13
2022-11-06T23:41:58.596Z,7.25
2022-11-06T23:44:43.329Z,8.18
2022-11-06T23:47:12.017Z,7.80
2022-11-06T23:49:39.392Z,7.50
2022-11-06T23:52:06.737Z,8.02
2022-11-06T23:54:34.079Z,8.05
2022-11-06T23:57:01.416Z,7.82
2022-11-06T23:59:28.750Z,8.15
